SBSV/SSA METAR and TAF weather

Enter ICAO airport designator
Station Type Date Time Source
SBSV METAR 2019/07/17 12:00 UTC NOAA

SBSV 171200Z 07005KT 9999 FEW020 26/23 Q1018


Station Type Date Time Source
SBSV Decoded METAR 2019/07/17 12:00 UTC NOAA

Salvador Aeroporto , Brazil (SBSV) 12-54S 038-20W 13M
Jul 17, 2019 - 08:00 AM EDT / 2019.07.17 1200 UTC
Wind: from the ENE (070 degrees) at 6 MPH (5 KT):0
Visibility: greater than 7 mile(s):0
Sky conditions: mostly clear
Temperature: 78 F (26 C)
Dew Point: 73 F (23 C)
Relative Humidity: 83%
Pressure (altimeter): 30.06 in. Hg (1018 hPa)
ob: SBSV 171200Z 07005KT 9999 FEW020 26/23 Q1018
cycle: 12

Station Type Date Time Source
SBSV TAF 2019/07/17 12:36 UTC NOAA

TAF SBSV 171000Z 1712/1812 09010KT 9999 FEW025 TX28/1716Z TN25/1805Z
BECMG 1800/1802 18010KT BKN023 FEW025TCU
BECMG 1809/1812 2000 RA
RMK PEM

Example: see airport list